Time;durP1;ratioP1;P1;durP2;ratioP2;P2;SDS_P1;SDS_P2;PMS_P1;PMS_P2;Temp;Humidity;BMP_temperature;BMP_pressure;BME280_temperature;BME280_humidity;BME280_pressure;Samples;Min_cycle;Max_cycle;Signal;HPM_P1;HPM_P2
2021/05/20 00:00:23;;;;;;;46.03;36.90;;;22.50;90.10;;;;;;4993472;28;20034;-81
2021/05/20 00:02:50;;;;;;;45.40;36.25;;;22.50;90.00;;;;;;4994441;28;20027;-80
2021/05/20 00:05:16;;;;;;;49.08;38.35;;;22.40;90.00;;;;;;4994525;28;20023;-80
2021/05/20 00:07:43;;;;;;;48.22;37.13;;;22.40;90.00;;;;;;4992931;28;20379;-81
2021/05/20 00:10:09;;;;;;;51.25;38.50;;;22.40;90.00;;;;;;4993520;28;20042;-81
2021/05/20 00:12:35;;;;;;;46.13;37.70;;;22.40;90.00;;;;;;4960858;28;20030;-81
2021/05/20 00:15:02;;;;;;;48.45;38.33;;;22.40;90.10;;;;;;4977245;28;20031;-81
2021/05/20 00:17:28;;;;;;;46.58;38.03;;;22.50;90.10;;;;;;4992810;28;20468;-82
2021/05/20 00:19:53;;;;;;;45.63;37.00;;;22.40;90.10;;;;;;4993017;28;20114;-81
2021/05/20 00:22:19;;;;;;;49.35;38.28;;;22.50;90.10;;;;;;4993366;28;20387;-81
2021/05/20 00:24:45;;;;;;;48.13;38.28;;;22.40;90.10;;;;;;4993986;28;20105;-81
2021/05/20 00:27:10;;;;;;;46.47;37.97;;;22.40;90.10;;;;;;4976787;28;20039;-81
2021/05/20 00:29:36;;;;;;;47.30;38.15;;;22.40;90.10;;;;;;4993553;28;20084;-82
2021/05/20 00:32:02;;;;;;;49.42;38.40;;;22.50;90.10;;;;;;4993967;28;20073;-81
2021/05/20 00:34:27;;;;;;;47.70;38.15;;;22.50;90.10;;;;;;4992707;28;20132;-82
2021/05/20 00:36:53;;;;;;;48.63;37.50;;;22.40;90.10;;;;;;4960424;28;20362;-81
2021/05/20 00:39:19;;;;;;;44.33;37.05;;;22.50;90.10;;;;;;4992526;28;20455;-81
2021/05/20 00:41:44;;;;;;;46.97;37.20;;;22.40;90.10;;;;;;4976222;28;20038;-81
2021/05/20 00:44:10;;;;;;;47.80;38.03;;;22.40;90.10;;;;;;4993848;28;20035;-81
2021/05/20 00:46:36;;;;;;;44.92;35.97;;;22.50;90.10;;;;;;4993714;28;20038;-81
2021/05/20 00:49:09;;;;;;;48.28;36.90;;;22.40;90.10;;;;;;4994165;28;20034;-81
2021/05/20 00:51:35;;;;;;;45.13;36.10;;;22.50;90.10;;;;;;4962422;28;20034;-81
2021/05/20 00:54:01;;;;;;;47.22;36.53;;;22.40;90.10;;;;;;4992722;28;20117;-81
2021/05/20 00:56:29;;;;;;;45.85;36.50;;;22.50;90.20;;;;;;4993930;28;20033;-81
2021/05/20 00:58:55;;;;;;;46.15;35.92;;;22.50;90.20;;;;;;4992449;28;20042;-81
2021/05/20 01:01:20;;;;;;;44.13;35.65;;;22.40;90.10;;;;;;4994016;28;20419;-81
2021/05/20 01:03:46;;;;;;;44.05;35.22;;;22.50;90.20;;;;;;4992502;28;20046;-81
2021/05/20 01:06:12;;;;;;;42.03;34.35;;;22.40;90.10;;;;;;4976612;28;20037;-81
2021/05/20 01:08:38;;;;;;;42.00;34.13;;;22.50;90.20;;;;;;4992233;28;20033;-82
2021/05/20 01:11:04;;;;;;;43.05;34.40;;;22.40;90.10;;;;;;4993789;28;20026;-81
2021/05/20 01:13:29;;;;;;;41.13;33.17;;;22.40;90.10;;;;;;4993401;28;20109;-82
2021/05/20 01:15:55;;;;;;;40.60;33.30;;;22.40;90.10;;;;;;4991944;28;20053;-82
2021/05/20 01:18:21;;;;;;;41.80;34.40;;;22.40;90.20;;;;;;4992345;28;20035;-81
2021/05/20 01:20:47;;;;;;;41.80;33.30;;;22.50;90.20;;;;;;4993381;28;20468;-82
2021/05/20 01:23:15;;;;;;;41.10;32.80;;;22.40;90.20;;;;;;4993869;28;20030;-81
2021/05/20 01:25:47;;;;;;;36.53;30.88;;;22.40;90.20;;;;;;4992017;28;20050;-82
2021/05/20 01:28:15;;;;;;;42.05;32.97;;;22.40;90.20;;;;;;4993742;28;20023;-81
2021/05/20 01:30:44;;;;;;;40.10;32.20;;;22.40;90.20;;;;;;4992251;28;20217;-82
2021/05/20 01:33:10;;;;;;;39.38;31.67;;;22.40;90.20;;;;;;4992246;28;20062;-82
2021/05/20 01:35:36;;;;;;;38.97;30.73;;;22.40;90.20;;;;;;4976081;28;20093;-83
2021/05/20 01:41:03;;;;;;;38.25;30.10;;;22.40;90.20;;;;;;4992252;28;20026;-81
2021/05/20 01:43:30;;;;;;;38.55;29.25;;;22.40;90.20;;;;;;4995085;28;20472;-82
2021/05/20 01:46:00;;;;;;;32.28;27.98;;;22.40;90.20;;;;;;4997148;28;20061;-81
2021/05/20 01:48:34;;;;;;;34.88;28.58;;;22.40;90.20;;;;;;4995995;28;20056;-81
2021/05/20 01:51:06;;;;;;;35.65;28.42;;;22.40;90.20;;;;;;4995570;28;20468;-81
2021/05/20 01:53:33;;;;;;;36.03;29.50;;;22.40;90.20;;;;;;4995849;28;20038;-82
2021/05/20 01:55:59;;;;;;;34.20;27.88;;;22.40;90.20;;;;;;4995054;28;20042;-82
2021/05/20 01:58:25;;;;;;;33.63;27.13;;;22.40;90.20;;;;;;4979687;28;20057;-81
2021/05/20 02:00:51;;;;;;;36.08;27.98;;;22.40;90.20;;;;;;4996506;28;20457;-82
2021/05/20 02:03:18;;;;;;;31.70;26.45;;;22.40;90.20;;;;;;4995571;28;20465;-81
2021/05/20 02:05:43;;;;;;;33.90;26.92;;;22.40;90.30;;;;;;4996456;28;20023;-82
2021/05/20 02:08:09;;;;;;;33.20;25.83;;;22.40;90.30;;;;;;4995388;28;20037;-81
2021/05/20 02:10:35;;;;;;;32.10;25.85;;;22.40;90.30;;;;;;4979238;28;20034;-82
2021/05/20 02:13:00;;;;;;;32.38;26.38;;;22.40;90.30;;;;;;4962772;28;20479;-82
2021/05/20 02:15:26;;;;;;;31.17;24.77;;;22.40;90.30;;;;;;4995484;28;20030;-82
2021/05/20 02:17:53;;;;;;;31.55;25.13;;;22.40;90.30;;;;;;4978758;28;20539;-82
2021/05/20 02:20:20;;;;;;;27.83;24.15;;;22.40;90.30;;;;;;4996601;28;20026;-82
2021/05/20 02:22:46;;;;;;;29.40;23.73;;;22.40;90.30;;;;;;4994975;28;20027;-82
2021/05/20 02:25:12;;;;;;;27.67;23.27;;;22.30;90.30;;;;;;4995110;28;20046;-82
2021/05/20 02:27:37;;;;;;;27.65;22.67;;;22.40;90.30;;;;;;4979249;28;20089;-82
2021/05/20 02:30:05;;;;;;;27.90;23.35;;;22.40;90.30;;;;;;4995993;28;20034;-82
2021/05/20 02:32:31;;;;;;;28.02;22.75;;;22.30;90.30;;;;;;4995007;28;20022;-82
2021/05/20 02:34:56;;;;;;;28.90;23.27;;;22.40;90.30;;;;;;5015458;28;20116;-83
2021/05/20 02:37:22;;;;;;;26.02;22.50;;;22.40;90.30;;;;;;5015733;28;20034;-82
2021/05/20 02:39:48;;;;;;;27.40;22.33;;;22.30;90.30;;;;;;4981627;28;20034;-83
2021/05/20 02:42:13;;;;;;;26.42;22.42;;;22.40;90.30;;;;;;5016262;28;20033;-82
2021/05/20 02:44:39;;;;;;;25.25;20.63;;;22.40;90.30;;;;;;4998072;28;20476;-82
2021/05/20 02:47:05;;;;;;;24.65;20.60;;;22.40;90.30;;;;;;4997910;28;20491;-81
2021/05/20 02:49:30;;;;;;;25.88;20.42;;;22.30;90.30;;;;;;4981907;28;20039;-82
2021/05/20 02:51:56;;;;;;;24.90;20.60;;;22.40;90.30;;;;;;4997685;28;20079;-82
2021/05/20 02:54:22;;;;;;;25.33;20.10;;;22.30;90.30;;;;;;4996720;28;20084;-82
2021/05/20 02:56:48;;;;;;;23.30;19.27;;;22.30;90.30;;;;;;5014347;28;20456;-82
2021/05/20 02:59:13;;;;;;;22.33;19.63;;;22.30;90.30;;;;;;4997807;28;20034;-81
2021/05/20 03:01:43;;;;;;;23.33;19.23;;;22.30;90.30;;;;;;5015706;28;20486;-81
2021/05/20 03:04:09;;;;;;;22.88;18.77;;;22.30;90.30;;;;;;4997356;28;20030;-81
2021/05/20 03:06:35;;;;;;;22.63;18.48;;;22.30;90.30;;;;;;4997741;28;20030;-82
2021/05/20 03:09:00;;;;;;;19.80;16.77;;;22.30;90.30;;;;;;4997310;28;20032;-81
2021/05/20 03:11:27;;;;;;;21.38;18.67;;;22.30;90.30;;;;;;4996961;28;20483;-81
2021/05/20 03:13:53;;;;;;;22.42;17.98;;;22.40;90.30;;;;;;4980807;28;20053;-82
2021/05/20 03:16:18;;;;;;;21.50;17.98;;;22.30;90.30;;;;;;5014462;28;20115;-81
2021/05/20 03:18:44;;;;;;;19.55;17.17;;;22.30;90.30;;;;;;4997133;28;20041;-81
2021/05/20 03:21:10;;;;;;;19.33;16.80;;;22.30;90.30;;;;;;4996974;28;20029;-80
2021/05/20 03:23:35;;;;;;;20.38;16.70;;;22.30;90.30;;;;;;4996963;28;20036;-81
2021/05/20 03:26:01;;;;;;;20.23;16.42;;;22.30;90.30;;;;;;4980691;28;20471;-81
2021/05/20 03:28:27;;;;;;;23.67;17.38;;;22.30;90.30;;;;;;4997083;28;20456;-81
2021/05/20 03:30:52;;;;;;;18.33;15.80;;;22.30;90.30;;;;;;5014445;28;20033;-81
2021/05/20 03:33:19;;;;;;;19.15;16.38;;;22.30;90.30;;;;;;4964665;28;20167;-80
2021/05/20 03:35:45;;;;;;;19.13;15.57;;;22.30;90.30;;;;;;4965020;28;20033;-81
2021/05/20 03:38:10;;;;;;;17.23;14.68;;;22.30;90.30;;;;;;4980574;28;20869;-81
2021/05/20 03:40:36;;;;;;;18.77;15.45;;;22.30;90.30;;;;;;4980611;28;20365;-80
2021/05/20 03:43:02;;;;;;;17.70;14.70;;;22.30;90.30;;;;;;5014153;28;20037;-81
2021/05/20 03:45:27;;;;;;;17.55;15.18;;;22.30;90.30;;;;;;4981095;28;20026;-81
2021/05/20 03:47:53;;;;;;;17.00;13.82;;;22.30;90.30;;;;;;4996542;28;20037;-82
2021/05/20 03:50:19;;;;;;;17.30;14.40;;;22.30;90.30;;;;;;4980680;28;20041;-81
2021/05/20 03:52:44;;;;;;;17.10;14.27;;;22.30;90.30;;;;;;5014306;28;20025;-81
2021/05/20 03:55:10;;;;;;;16.55;13.32;;;22.30;90.30;;;;;;4964205;28;20072;-81
2021/05/20 03:57:36;;;;;;;15.93;13.48;;;22.30;90.30;;;;;;4980632;28;20046;-81
2021/05/20 04:00:05;;;;;;;16.50;13.48;;;22.30;90.20;;;;;;4996251;28;20029;-81
2021/05/20 04:02:31;;;;;;;15.73;12.93;;;22.30;90.30;;;;;;4996573;28;20030;-81
2021/05/20 04:04:57;;;;;;;16.35;13.32;;;22.30;90.20;;;;;;4996104;28;20081;-81
2021/05/20 04:07:23;;;;;;;15.75;12.32;;;22.30;90.20;;;;;;4996363;28;20036;-80
2021/05/20 04:09:48;;;;;;;15.45;12.05;;;22.30;90.20;;;;;;4996797;28;20468;-81
2021/05/20 04:12:14;;;;;;;15.93;12.43;;;22.30;90.20;;;;;;4996218;28;20519;-80
2021/05/20 04:14:39;;;;;;;14.40;11.95;;;22.30;90.20;;;;;;4980118;28;20033;-81
2021/05/20 04:17:05;;;;;;;12.80;11.27;;;22.30;90.20;;;;;;4979717;28;20042;-81
2021/05/20 04:19:31;;;;;;;12.77;10.57;;;22.30;90.20;;;;;;4980055;28;20041;-81
2021/05/20 04:21:57;;;;;;;13.27;10.80;;;22.30;90.20;;;;;;4995834;28;20037;-82
2021/05/20 04:24:24;;;;;;;13.35;10.93;;;22.30;90.20;;;;;;5013884;28;20033;-81
2021/05/20 04:26:52;;;;;;;12.20;10.68;;;22.30;90.20;;;;;;4980442;28;20165;-81
2021/05/20 04:29:18;;;;;;;12.23;10.15;;;22.30;90.20;;;;;;4979853;28;20073;-81
2021/05/20 04:31:44;;;;;;;11.95;10.32;;;22.30;90.20;;;;;;5013709;28;20026;-81
2021/05/20 04:34:10;;;;;;;11.93;10.27;;;22.30;90.20;;;;;;4979245;28;20122;-81
2021/05/20 04:36:36;;;;;;;11.35;9.55;;;22.30;90.20;;;;;;4996019;28;20040;-81
2021/05/20 04:39:02;;;;;;;12.15;9.63;;;22.30;90.20;;;;;;4995770;28;20464;-81
2021/05/20 04:41:28;;;;;;;11.82;9.70;;;22.30;90.20;;;;;;4995973;28;20030;-81
2021/05/20 04:43:54;;;;;;;11.48;9.65;;;22.30;90.10;;;;;;5013396;28;20088;-81
2021/05/20 04:46:20;;;;;;;10.63;9.02;;;22.30;90.10;;;;;;4995387;28;20495;-80
2021/05/20 04:48:45;;;;;;;11.15;8.80;;;22.30;90.10;;;;;;4979757;28;20034;-82
2021/05/20 04:51:11;;;;;;;11.73;9.02;;;22.30;90.10;;;;;;5013194;28;20554;-81
2021/05/20 04:53:36;;;;;;;10.70;9.15;;;22.30;90.10;;;;;;4963584;28;20140;-81
2021/05/20 04:56:03;;;;;;;9.18;7.75;;;22.30;90.10;;;;;;4979089;28;20438;-82
2021/05/20 04:58:29;;;;;;;9.35;8.05;;;22.40;90.10;;;;;;4995684;28;20038;-81
2021/05/20 05:00:54;;;;;;;9.57;7.75;;;22.30;90.10;;;;;;5012953;28;20393;-81
2021/05/20 05:03:20;;;;;;;8.30;7.38;;;22.30;90.00;;;;;;4995633;28;20048;-81
2021/05/20 05:05:47;;;;;;;8.50;7.20;;;22.40;90.00;;;;;;4995618;28;20171;-81
2021/05/20 05:08:12;;;;;;;8.60;6.80;;;22.30;90.00;;;;;;4963444;28;20084;-80
2021/05/20 05:10:38;;;;;;;8.18;7.10;;;22.30;90.20;;;;;;4979345;28;20116;-81
2021/05/20 05:13:04;;;;;;;7.95;6.60;;;22.40;90.00;;;;;;4995410;28;20065;-82
2021/05/20 05:15:30;;;;;;;7.72;6.93;;;22.40;89.90;;;;;;5012702;28;20041;-81
2021/05/20 05:17:55;;;;;;;6.80;6.10;;;22.40;89.90;;;;;;5013321;28;20543;-80
2021/05/20 05:20:21;;;;;;;8.50;6.85;;;22.40;89.90;;;;;;4966916;28;20491;-80
2021/05/20 05:22:47;;;;;;;5.80;5.20;;;22.40;89.80;;;;;;4999805;28;20036;-80
2021/05/20 05:25:13;;;;;;;6.82;5.75;;;22.40;89.80;;;;;;4999264;28;20129;-81
2021/05/20 05:27:38;;;;;;;6.82;5.82;;;22.40;89.80;;;;;;4967275;28;20034;-81
2021/05/20 05:30:05;;;;;;;6.28;5.35;;;22.40;89.60;;;;;;4999639;28;20030;-81
2021/05/20 05:32:30;;;;;;;5.78;5.10;;;22.40;89.70;;;;;;4983074;28;20022;-80
2021/05/20 05:34:56;;;;;;;5.80;5.07;;;22.40;89.60;;;;;;4983292;28;20404;-81
2021/05/20 05:37:22;;;;;;;5.60;4.95;;;22.50;89.60;;;;;;4982833;28;20084;-80
2021/05/20 05:39:47;;;;;;;6.63;5.40;;;22.40;89.50;;;;;;4983368;28;20538;-81
2021/05/20 05:42:14;;;;;;;5.57;4.95;;;22.50;89.60;;;;;;4966642;28;20042;-81
2021/05/20 05:44:39;;;;;;;5.07;4.53;;;22.40;89.70;;;;;;5017025;28;20030;-81
2021/05/20 05:47:07;;;;;;;5.90;4.93;;;22.40;89.50;;;;;;4982914;28;20042;-81
2021/05/20 05:49:38;;;;;;;4.53;4.10;;;22.50;89.50;;;;;;4999553;28;20396;-80
2021/05/20 05:52:07;;;;;;;5.43;4.15;;;22.40;89.50;;;;;;5000018;28;20030;-80
2021/05/20 05:54:32;;;;;;;4.53;3.50;;;22.50;89.60;;;;;;4999498;28;20026;-80
2021/05/20 05:56:58;;;;;;;4.07;3.50;;;22.40;89.60;;;;;;4999160;28;20029;-81
2021/05/20 05:59:24;;;;;;;4.15;3.70;;;22.50;89.60;;;;;;4981980;28;20136;-81
2021/05/20 06:01:50;;;;;;;4.40;3.72;;;22.50;89.70;;;;;;4982730;28;20471;-82
2021/05/20 06:04:16;;;;;;;4.35;3.50;;;22.50;89.60;;;;;;4998517;28;20032;-81
2021/05/20 06:06:46;;;;;;;3.30;3.00;;;22.50;89.70;;;;;;4982629;28;20030;-81
2021/05/20 06:09:12;;;;;;;3.15;2.85;;;22.50;89.60;;;;;;5016098;28;20032;-83
2021/05/20 06:11:39;;;;;;;3.25;2.95;;;22.50;89.70;;;;;;4998562;28;20061;-82
2021/05/20 06:14:06;;;;;;;3.20;2.90;;;22.50;89.70;;;;;;4982248;28;20033;-82
2021/05/20 06:16:35;;;;;;;3.15;2.70;;;22.50;89.80;;;;;;4998372;28;20411;-82
2021/05/20 06:19:03;;;;;;;3.17;2.85;;;22.50;90.00;;;;;;4998935;28;20030;-82
2021/05/20 06:21:29;;;;;;;2.80;2.60;;;22.50;90.00;;;;;;4998314;28;20034;-82
2021/05/20 06:23:55;;;;;;;2.50;2.30;;;22.60;90.10;;;;;;5016266;28;20033;-82
2021/05/20 06:26:21;;;;;;;2.60;2.40;;;22.50;90.20;;;;;;5015942;28;20030;-82
2021/05/20 06:28:46;;;;;;;2.42;2.00;;;22.60;90.20;;;;;;5016170;28;20026;-82
2021/05/20 06:31:12;;;;;;;2.20;1.85;;;22.60;90.20;;;;;;4998037;28;20468;-84
2021/05/20 06:33:37;;;;;;;2.58;2.17;;;22.60;90.30;;;;;;4998235;28;20133;-82
2021/05/20 06:36:04;;;;;;;2.45;2.10;;;22.60;90.30;;;;;;4998440;28;20129;-82
2021/05/20 06:38:29;;;;;;;2.30;2.10;;;22.60;90.30;;;;;;5015646;28;20061;-82
2021/05/20 06:40:55;;;;;;;2.85;2.08;;;22.60;90.30;;;;;;4982286;28;20058;-82
2021/05/20 06:43:21;;;;;;;2.47;2.13;;;22.60;90.40;;;;;;4998064;28;20456;-81
2021/05/20 06:45:48;;;;;;;2.50;1.85;;;22.60;90.40;;;;;;4998333;28;20049;-81
2021/05/20 06:48:16;;;;;;;2.30;2.10;;;22.60;90.40;;;;;;4998159;28;20030;-82
2021/05/20 06:50:43;;;;;;;2.30;2.10;;;22.60;90.40;;;;;;5015698;28;20084;-81
2021/05/20 06:53:09;;;;;;;1.90;1.70;;;22.60;90.40;;;;;;5015572;28;20022;-81
2021/05/20 06:55:35;;;;;;;2.75;2.33;;;22.60;90.40;;;;;;5015783;28;20041;-81
2021/05/20 07:00:34;;;;;;;3.55;2.45;;;22.60;90.20;;;;;;4982462;28;20065;-81
2021/05/20 07:03:00;;;;;;;4.75;3.38;;;22.70;90.30;;;;;;5015608;28;20021;-81
2021/05/20 07:05:26;;;;;;;4.38;3.67;;;22.70;90.30;;;;;;5015167;28;20033;-82
2021/05/20 07:07:52;;;;;;;6.03;4.32;;;22.60;90.30;;;;;;4997335;28;20431;-81
2021/05/20 07:10:18;;;;;;;5.60;4.55;;;22.70;90.30;;;;;;4981423;28;20100;-82
2021/05/20 07:12:44;;;;;;;6.25;4.88;;;22.70;90.40;;;;;;4997926;28;20026;-82
2021/05/20 07:15:10;;;;;;;6.15;5.50;;;22.70;90.30;;;;;;4997890;28;20451;-82
2021/05/20 07:17:36;;;;;;;7.13;5.82;;;22.70;90.40;;;;;;4980896;28;20038;-81
2021/05/20 07:20:04;;;;;;;6.45;5.07;;;22.70;90.50;;;;;;5015101;28;20025;-81
2021/05/20 07:22:31;;;;;;;6.65;5.85;;;22.70;90.60;;;;;;5014862;28;20056;-82
2021/05/20 07:25:00;;;;;;;7.85;6.15;;;22.70;90.70;;;;;;4997653;28;20033;-81
2021/05/20 07:27:25;;;;;;;6.68;5.55;;;22.80;90.90;;;;;;4996637;28;20033;-82
2021/05/20 07:29:51;;;;;;;6.30;5.50;;;22.80;90.90;;;;;;4981050;28;20026;-81
2021/05/20 07:32:18;;;;;;;7.57;5.85;;;22.80;90.90;;;;;;5014473;28;20034;-81
2021/05/20 07:34:44;;;;;;;6.97;5.85;;;22.80;91.00;;;;;;4996402;28;20069;-81
2021/05/20 07:37:10;;;;;;;7.85;6.22;;;22.90;91.00;;;;;;4997136;28;20034;-81
2021/05/20 07:39:36;;;;;;;6.63;5.45;;;22.80;91.00;;;;;;5014326;28;20033;-81
2021/05/20 07:42:02;;;;;;;6.93;5.68;;;22.80;91.00;;;;;;4996206;28;20176;-81
2021/05/20 07:44:28;;;;;;;6.30;5.10;;;22.80;91.00;;;;;;4981138;28;20026;-80
2021/05/20 07:46:56;;;;;;;6.20;5.32;;;22.90;91.00;;;;;;4996890;28;20395;-83
2021/05/20 07:49:21;;;;;;;5.65;4.80;;;22.90;91.20;;;;;;4980351;28;20512;-82
2021/05/20 07:51:47;;;;;;;5.40;4.80;;;22.90;91.00;;;;;;4996445;28;20034;-82
2021/05/20 07:54:19;;;;;;;5.97;4.70;;;22.90;91.00;;;;;;4964049;28;20387;-82
2021/05/20 07:56:45;;;;;;;5.93;4.55;;;22.90;91.10;;;;;;4980669;28;20038;-81
2021/05/20 07:59:11;;;;;;;4.93;4.05;;;22.90;91.10;;;;;;5014121;28;20480;-82
2021/05/20 08:01:40;;;;;;;5.60;4.70;;;22.90;91.00;;;;;;4996634;28;20460;-83
2021/05/20 08:04:12;;;;;;;5.20;4.20;;;22.90;91.00;;;;;;4965252;28;20030;-82
2021/05/20 08:06:42;;;;;;;5.85;4.30;;;22.90;91.00;;;;;;4966139;28;20096;-83
2021/05/20 08:11:51;;;;;;;4.20;3.60;;;22.90;91.00;;;;;;5013607;28;20500;-82
2021/05/20 08:14:17;;;;;;;4.40;3.75;;;22.90;91.00;;;;;;5013897;28;20113;-82
2021/05/20 08:16:43;;;;;;;4.25;3.47;;;22.90;91.00;;;;;;4996410;28;20120;-83
2021/05/20 08:19:09;;;;;;;4.05;3.45;;;22.90;91.00;;;;;;4996711;28;20411;-82
2021/05/20 08:21:35;;;;;;;4.10;3.47;;;22.90;90.90;;;;;;4979905;28;20026;-83
2021/05/20 08:24:01;;;;;;;4.05;3.42;;;22.90;90.90;;;;;;4980532;28;20030;-82
2021/05/20 08:26:27;;;;;;;4.50;3.50;;;22.90;90.80;;;;;;4996346;28;20034;-82
2021/05/20 08:28:53;;;;;;;4.68;3.60;;;22.90;90.80;;;;;;4996471;28;20472;-83
2021/05/20 08:31:19;;;;;;;4.50;3.88;;;22.90;90.80;;;;;;5013807;28;20072;-83
2021/05/20 08:33:44;;;;;;;5.05;4.05;;;22.90;90.80;;;;;;5013369;28;20058;-81
2021/05/20 08:36:10;;;;;;;5.47;3.97;;;22.90;90.70;;;;;;4996197;28;20042;-82
2021/05/20 08:38:36;;;;;;;4.18;3.47;;;22.90;90.70;;;;;;4996125;28;20034;-82
2021/05/20 08:41:02;;;;;;;3.78;3.28;;;22.90;90.60;;;;;;5013624;28;20033;-82
2021/05/20 08:43:28;;;;;;;4.90;3.90;;;22.90;90.60;;;;;;4979971;28;20038;-82
2021/05/20 08:45:54;;;;;;;4.57;3.50;;;22.90;90.50;;;;;;4979550;28;20469;-82
2021/05/20 08:48:19;;;;;;;4.30;3.63;;;22.90;90.50;;;;;;4996143;28;20064;-81
2021/05/20 08:50:45;;;;;;;4.95;3.75;;;22.90;90.50;;;;;;4995581;28;20034;-82
2021/05/20 08:53:12;;;;;;;4.85;3.97;;;22.90;90.40;;;;;;5013623;28;20467;-83
2021/05/20 08:55:39;;;;;;;3.90;3.50;;;22.90;90.40;;;;;;5012955;28;20472;-83
2021/05/20 08:58:09;;;;;;;4.20;3.80;;;22.90;90.40;;;;;;4979571;28;20044;-82
2021/05/20 09:00:34;;;;;;;4.82;3.97;;;22.90;90.30;;;;;;5013186;28;20030;-83
2021/05/20 09:03:13;;;;;;;3.90;3.47;;;22.90;90.50;;;;;;4996002;28;20356;-83
2021/05/20 09:05:41;;;;;;;4.18;3.47;;;22.90;90.30;;;;;;4979801;28;20042;-82
2021/05/20 09:08:12;;;;;;;3.88;3.45;;;22.90;90.30;;;;;;4995693;28;20026;-82
2021/05/20 09:10:40;;;;;;;3.85;3.45;;;22.90;90.30;;;;;;4980114;28;20368;-83
2021/05/20 09:13:08;;;;;;;4.07;3.63;;;22.90;90.50;;;;;;5013243;28;20034;-83
2021/05/20 09:15:40;;;;;;;4.47;3.30;;;22.90;90.30;;;;;;5013056;28;20030;-84
2021/05/20 09:18:27;;;;;;;3.80;3.40;;;22.90;90.20;;;;;;5013274;28;20068;-82
2021/05/20 09:20:56;;;;;;;3.95;3.55;;;22.90;90.20;;;;;;5013028;28;20038;-83
2021/05/20 09:23:27;;;;;;;4.57;3.80;;;22.90;90.10;;;;;;4979765;28;20030;-83
2021/05/20 09:26:07;;;;;;;4.03;3.42;;;22.90;90.10;;;;;;5013042;28;20045;-83
2021/05/20 09:28:38;;;;;;;4.07;3.55;;;22.90;90.10;;;;;;5013297;28;20061;-83
2021/05/20 09:31:04;;;;;;;4.22;3.47;;;22.90;90.10;;;;;;5013317;28;20112;-83
2021/05/20 09:33:30;;;;;;;3.60;3.00;;;22.90;90.00;;;;;;4991947;28;20096;-83
2021/05/20 09:35:55;;;;;;;4.15;3.50;;;22.90;90.00;;;;;;4991278;28;20038;-83
2021/05/20 09:38:26;;;;;;;4.43;3.30;;;22.90;90.00;;;;;;4991628;28;20121;-83
2021/05/20 09:40:56;;;;;;;3.65;3.08;;;22.90;89.90;;;;;;4959222;28;20031;-82
2021/05/20 09:43:22;;;;;;;3.90;3.47;;;22.90;89.90;;;;;;4991498;28;20380;-83
2021/05/20 09:45:50;;;;;;;4.22;3.50;;;22.80;89.80;;;;;;4991146;28;20026;-82
2021/05/20 09:48:16;;;;;;;3.80;3.40;;;22.90;89.80;;;;;;4992945;28;20166;-81
2021/05/20 09:50:47;;;;;;;3.78;3.38;;;22.90;89.70;;;;;;4976012;28;20058;-82
2021/05/20 09:53:16;;;;;;;3.83;3.35;;;22.80;89.60;;;;;;4992696;28;20027;-82
2021/05/20 09:55:53;;;;;;;5.53;4.00;;;22.90;89.60;;;;;;4993751;28;20045;-83
2021/05/20 09:58:26;;;;;;;5.03;4.20;;;22.90;89.50;;;;;;4992643;28;20109;-81
2021/05/20 10:00:52;;;;;;;5.50;4.47;;;22.90;89.40;;;;;;4992784;28;20026;-82
2021/05/20 10:03:20;;;;;;;4.20;3.63;;;22.80;89.30;;;;;;4991466;28;20026;-83
2021/05/20 10:05:47;;;;;;;4.47;3.85;;;22.90;89.30;;;;;;4995258;28;20492;-82
2021/05/20 10:08:15;;;;;;;5.28;4.22;;;22.90;89.20;;;;;;4994193;28;20416;-82
2021/05/20 10:10:46;;;;;;;4.97;4.05;;;22.90;89.10;;;;;;4994005;28;20034;-83
2021/05/20 10:13:15;;;;;;;5.00;4.07;;;22.80;89.00;;;;;;4995737;28;20069;-82
2021/05/20 10:15:41;;;;;;;4.28;3.42;;;22.90;89.00;;;;;;4995343;28;20097;-86
2021/05/20 10:18:14;;;;;;;4.00;3.60;;;22.90;88.90;;;;;;4995514;28;20030;-82
2021/05/20 10:20:42;;;;;;;4.47;3.55;;;22.80;88.80;;;;;;4995518;28;20034;-82
2021/05/20 10:23:11;;;;;;;4.25;3.72;;;22.90;88.80;;;;;;4994330;28;20022;-82
2021/05/20 10:25:38;;;;;;;4.32;3.83;;;22.90;88.80;;;;;;4995476;28;20477;-82
2021/05/20 10:28:09;;;;;;;4.28;3.53;;;22.80;88.60;;;;;;4993904;28;20473;-82
2021/05/20 10:30:37;;;;;;;3.97;3.55;;;22.80;88.60;;;;;;4995119;28;20022;-82
2021/05/20 10:33:03;;;;;;;4.53;3.67;;;22.90;88.60;;;;;;4972838;28;688128;-83
2021/05/20 10:35:53;;;;;;;4.20;3.55;;;22.80;88.50;;;;;;4982636;28;20068;-82
2021/05/20 10:38:37;;;;;;;3.85;3.35;;;22.80;88.40;;;;;;5016119;28;20101;-82
2021/05/20 10:41:09;;;;;;;5.20;4.23;;;22.80;88.40;;;;;;4998262;28;20034;-82
2021/05/20 10:43:35;;;;;;;3.97;3.25;;;22.80;88.40;;;;;;4998325;28;20538;-83
2021/05/20 10:46:06;;;;;;;4.38;3.72;;;22.80;88.30;;;;;;5015392;28;20045;-83
2021/05/20 10:48:33;;;;;;;4.68;3.60;;;22.80;88.30;;;;;;4998299;28;20030;-81
2021/05/20 10:51:00;;;;;;;4.20;3.78;;;22.80;88.20;;;;;;4998192;28;20034;-82
2021/05/20 10:53:41;;;;;;;5.05;4.20;;;22.80;88.10;;;;;;4997881;28;20022;-82
2021/05/20 10:56:33;;;;;;;4.07;3.55;;;22.80;88.00;;;;;;5015373;28;20030;-82
2021/05/20 10:59:00;;;;;;;4.93;4.20;;;22.80;88.00;;;;;;4987293;28;20478;-83
2021/05/20 11:01:27;;;;;;;4.18;3.70;;;22.80;88.00;;;;;;5015397;28;20053;-82
2021/05/20 11:03:54;;;;;;;4.10;3.45;;;22.80;87.90;;;;;;4997613;28;20029;-83
2021/05/20 11:06:22;;;;;;;4.05;3.40;;;22.80;87.90;;;;;;4997895;28;20122;-82
2021/05/20 11:08:47;;;;;;;4.90;3.78;;;22.80;87.80;;;;;;5015245;28;20118;-85
2021/05/20 11:11:31;;;;;;;5.07;3.92;;;22.80;87.70;;;;;;5015417;28;20037;-83
2021/05/20 11:13:58;;;;;;;4.43;4.03;;;22.80;87.70;;;;;;4997608;28;20030;-83
2021/05/20 11:16:31;;;;;;;4.63;3.63;;;22.80;87.70;;;;;;5014409;28;20034;-83
2021/05/20 11:19:19;;;;;;;4.32;3.72;;;22.70;87.60;;;;;;5015321;28;20052;-83
2021/05/20 11:22:01;;;;;;;4.43;3.47;;;22.70;87.50;;;;;;4997790;28;20036;-83
2021/05/20 11:24:32;;;;;;;4.95;4.32;;;22.80;87.60;;;;;;5015087;28;20025;-83
2021/05/20 11:27:02;;;;;;;5.50;4.10;;;22.70;87.50;;;;;;5014892;28;20061;-83
2021/05/20 11:29:33;;;;;;;4.50;4.07;;;22.70;87.50;;;;;;5014884;28;20021;-83
2021/05/20 11:35:33;;;;;;;4.13;3.72;;;22.70;87.40;;;;;;5001151;28;20077;-82
2021/05/20 11:37:59;;;;;;;5.05;4.03;;;22.80;87.50;;;;;;5014429;28;20060;-83
2021/05/20 11:40:29;;;;;;;5.38;4.10;;;22.70;87.40;;;;;;4981233;28;20508;-83
2021/05/20 11:42:55;;;;;;;5.50;4.00;;;22.70;87.40;;;;;;5014864;28;20076;-83
2021/05/20 11:45:26;;;;;;;4.07;3.63;;;22.70;87.40;;;;;;4997211;28;20117;-83
2021/05/20 11:47:56;;;;;;;4.30;3.80;;;22.70;87.40;;;;;;4997090;28;20109;-82
2021/05/20 11:50:25;;;;;;;3.72;3.28;;;22.70;87.40;;;;;;4997141;28;20475;-82
2021/05/20 11:52:52;;;;;;;3.63;3.30;;;22.70;87.40;;;;;;5014648;28;20465;-81
2021/05/20 11:55:19;;;;;;;4.25;3.47;;;22.70;87.40;;;;;;4980848;28;20491;-82
2021/05/20 11:57:45;;;;;;;3.63;3.25;;;22.80;87.50;;;;;;4980480;28;20100;-82
2021/05/20 12:00:14;;;;;;;4.05;3.65;;;22.80;87.50;;;;;;4996780;28;20075;-82
2021/05/20 12:02:42;;;;;;;3.10;2.80;;;22.70;87.40;;;;;;4996988;28;20109;-82
2021/05/20 12:05:10;;;;;;;4.18;3.40;;;22.80;87.60;;;;;;4997069;28;20087;-82
2021/05/20 12:07:38;;;;;;;3.10;2.80;;;22.70;87.60;;;;;;4980835;28;20034;-82
2021/05/20 12:10:11;;;;;;;3.40;3.00;;;22.70;87.60;;;;;;5013758;28;20029;-83
2021/05/20 12:12:38;;;;;;;3.05;2.63;;;22.80;87.70;;;;;;4996584;28;20472;-82
2021/05/20 12:15:12;;;;;;;3.78;3.10;;;22.80;87.70;;;;;;4980304;28;20037;-82
2021/05/20 12:17:38;;;;;;;3.33;2.80;;;22.80;87.80;;;;;;4996281;28;20549;-82
2021/05/20 12:20:04;;;;;;;3.33;2.40;;;22.80;87.80;;;;;;4996433;28;20026;-83
2021/05/20 12:22:30;;;;;;;3.20;2.70;;;22.80;87.80;;;;;;5013991;28;20060;-82
2021/05/20 12:25:04;;;;;;;3.35;2.92;;;22.80;87.90;;;;;;4979915;28;20030;-82
2021/05/20 12:27:48;;;;;;;2.88;2.53;;;22.70;87.80;;;;;;5013795;28;20037;-83
2021/05/20 12:30:22;;;;;;;3.57;2.83;;;22.80;87.80;;;;;;5013881;28;20032;-83
2021/05/20 12:32:49;;;;;;;2.95;2.40;;;22.80;87.90;;;;;;4996150;28;20099;-84
2021/05/20 12:35:23;;;;;;;2.92;2.63;;;22.70;87.80;;;;;;5013726;28;20025;-83
2021/05/20 12:37:48;;;;;;;2.65;2.45;;;22.70;87.80;;;;;;5013850;28;20041;-82
2021/05/20 12:40:33;;;;;;;2.78;2.45;;;22.80;87.90;;;;;;5013319;28;20022;-83
2021/05/20 12:43:21;;;;;;;2.92;2.55;;;22.80;87.90;;;;;;4995908;28;20538;-86
2021/05/20 12:45:59;;;;;;;2.72;2.40;;;22.70;87.90;;;;;;4996165;28;20108;-82
2021/05/20 12:48:30;;;;;;;3.05;2.75;;;22.70;88.00;;;;;;4995903;28;20018;-82
2021/05/20 12:51:19;;;;;;;2.90;2.60;;;22.70;88.00;;;;;;4995977;28;20033;-82